createdAt,value
2022-09-26T05:47:59.942Z,3.13
2022-09-26T05:50:27.176Z,3.47
2022-09-26T05:53:01.461Z,3.40
2022-09-26T05:55:29.021Z,2.63
2022-09-26T05:57:58.491Z,3.87
2022-09-26T06:00:28.743Z,3.30
2022-09-26T06:02:59.239Z,3.37
2022-09-26T06:05:26.134Z,3.40
2022-09-26T06:07:53.477Z,3.63
2022-09-26T06:10:21.237Z,3.23
2022-09-26T06:12:51.059Z,3.60
2022-09-26T06:15:18.039Z,3.27
2022-09-26T06:17:45.081Z,3.93
2022-09-26T06:20:12.257Z,3.40
2022-09-26T06:22:43.275Z,3.30
2022-09-26T06:25:10.747Z,4.57
2022-09-26T06:27:38.598Z,5.80
2022-09-26T06:30:12.562Z,10.13
2022-09-26T06:32:39.194Z,5.77
2022-09-26T06:35:06.859Z,3.23
2022-09-26T06:37:33.707Z,4.17
2022-09-26T06:40:00.721Z,3.50
2022-09-26T06:42:27.385Z,4.30
2022-09-26T06:44:53.938Z,4.37
2022-09-26T06:47:20.535Z,5.43
2022-09-26T06:49:50.575Z,3.70
2022-09-26T06:52:17.247Z,3.90
2022-09-26T06:54:43.886Z,5.47
2022-09-26T06:57:14.906Z,3.77
2022-09-26T06:59:41.899Z,3.90
2022-09-26T07:02:09.176Z,3.73
2022-09-26T07:04:35.904Z,4.93
2022-09-26T07:07:02.543Z,4.70
2022-09-26T07:09:29.124Z,4.03
2022-09-26T07:12:13.979Z,4.77
2022-09-26T07:14:42.432Z,5.00
2022-09-26T07:17:15.615Z,5.27
2022-09-26T07:19:42.896Z,5.50
2022-09-26T07:22:10.095Z,4.63
2022-09-26T07:24:36.840Z,4.87
2022-09-26T07:27:03.566Z,5.17
2022-09-26T07:29:30.245Z,4.67
2022-09-26T07:31:58.620Z,3.90
2022-09-26T07:34:25.800Z,4.00
2022-09-26T07:36:52.871Z,4.40
2022-09-26T07:39:19.492Z,3.50
2022-09-26T07:41:46.875Z,3.37
2022-09-26T07:47:19.578Z,2.60
2022-09-26T07:50:05.117Z,2.63
2022-09-26T07:52:31.674Z,2.67
2022-09-26T07:54:58.286Z,2.20
2022-09-26T07:57:24.884Z,2.37
2022-09-26T07:59:54.214Z,2.37
2022-09-26T08:02:35.575Z,2.57
2022-09-26T08:05:05.881Z,2.30
2022-09-26T08:07:35.255Z,2.10
2022-09-26T08:10:03.082Z,1.80
2022-09-26T08:12:36.123Z,2.17
2022-09-26T08:15:06.147Z,1.80
2022-09-26T08:17:33.619Z,2.00
2022-09-26T08:20:03.655Z,1.90
2022-09-26T08:22:30.357Z,1.97
2022-09-26T08:24:58.768Z,1.63
2022-09-26T08:27:25.905Z,2.03
2022-09-26T08:29:53.165Z,2.10
2022-09-26T08:32:20.620Z,1.90
2022-09-26T08:34:47.595Z,2.07
2022-09-26T08:37:14.543Z,1.80
2022-09-26T08:39:41.155Z,1.90
2022-09-26T08:42:34.310Z,1.77
2022-09-26T08:45:40.572Z,2.17
2022-09-26T08:48:38.485Z,1.73
2022-09-26T08:51:28.254Z,1.50
2022-09-26T08:54:18.236Z,1.47
2022-09-26T08:56:54.057Z,1.40
2022-09-26T08:59:33.887Z,1.23
2022-09-26T09:02:05.446Z,1.60
2022-09-26T09:04:44.297Z,1.87
2022-09-26T09:07:20.883Z,1.27
2022-09-26T09:09:47.781Z,1.37
2022-09-26T09:12:55.180Z,1.37
2022-09-26T09:16:00.268Z,2.43
2022-09-26T09:18:51.489Z,1.20
2022-09-26T09:21:54.743Z,1.40
2022-09-26T09:24:45.557Z,1.30
2022-09-26T09:30:15.749Z,1.30
2022-09-26T09:32:57.972Z,1.40
2022-09-26T09:35:31.355Z,1.33
2022-09-26T09:37:58.412Z,1.30
2022-09-26T09:40:33.815Z,1.30
2022-09-26T09:43:07.669Z,1.10
2022-09-26T09:45:51.720Z,1.43
2022-09-26T09:48:18.821Z,1.07
2022-09-26T09:51:15.453Z,1.20
2022-09-26T09:54:04.116Z,1.60
2022-09-26T09:56:30.670Z,1.30
2022-09-26T09:59:47.466Z,1.50
2022-09-26T10:02:44.064Z,0.97
2022-09-26T10:05:35.474Z,1.10
2022-09-26T10:08:03.038Z,1.10
2022-09-26T10:11:07.392Z,0.90
2022-09-26T10:13:35.510Z,1.27
2022-09-26T10:16:06.227Z,1.03
2022-09-26T10:18:33.795Z,1.20
2022-09-26T10:21:18.989Z,1.80
2022-09-26T10:23:50.512Z,2.67
2022-09-26T10:26:34.624Z,1.67
2022-09-26T10:29:08.077Z,1.60
2022-09-26T10:31:42.390Z,1.40
2022-09-26T10:34:37.042Z,1.50
2022-09-26T10:37:29.630Z,1.70
2022-09-26T10:40:17.223Z,1.80
2022-09-26T10:42:48.839Z,2.10
2022-09-26T10:45:17.987Z,2.33
2022-09-26T10:47:46.422Z,2.10
2022-09-26T10:50:22.176Z,1.90
2022-09-26T10:52:52.237Z,1.47
2022-09-26T10:55:25.579Z,1.50
2022-09-26T10:57:54.550Z,1.40
2022-09-26T11:00:37.093Z,1.30
2022-09-26T11:03:13.868Z,1.20
2022-09-26T11:05:59.414Z,1.67
2022-09-26T11:08:34.777Z,1.50
2022-09-26T11:11:04.211Z,1.40
2022-09-26T11:13:39.858Z,1.30
2022-09-26T11:16:14.600Z,1.10
2022-09-26T11:19:08.578Z,0.97
2022-09-26T11:21:44.232Z,1.33
2022-09-26T11:24:42.729Z,1.60
2022-09-26T11:27:46.049Z,1.13
2022-09-26T11:30:19.171Z,1.10
2022-09-26T11:32:49.761Z,1.00
2022-09-26T11:35:29.459Z,1.40
2022-09-26T11:38:03.454Z,1.13
2022-09-26T11:40:54.424Z,1.20
2022-09-26T11:43:40.285Z,0.90
2022-09-26T11:46:25.343Z,1.27
2022-09-26T11:49:15.416Z,1.20
2022-09-26T11:51:58.973Z,1.33
2022-09-26T11:54:58.394Z,1.50
2022-09-26T11:57:34.151Z,1.33
2022-09-26T12:00:33.625Z,1.20
2022-09-26T12:03:04.673Z,1.50
2022-09-26T12:05:54.473Z,1.23
2022-09-26T12:08:49.130Z,1.27
2022-09-26T12:11:45.512Z,1.20
2022-09-26T12:14:36.067Z,1.53
2022-09-26T12:17:18.756Z,1.43
2022-09-26T12:20:24.398Z,1.60
2022-09-26T12:23:02.062Z,1.20
2022-09-26T12:25:55.079Z,1.20
2022-09-26T12:28:43.862Z,1.37
2022-09-26T12:31:47.641Z,1.40
2022-09-26T12:34:30.235Z,1.43
2022-09-26T12:37:39.198Z,1.83
2022-09-26T12:40:37.338Z,1.77
2022-09-26T12:43:24.072Z,1.20
2022-09-26T12:46:18.927Z,2.83
2022-09-26T12:48:56.554Z,2.27
2022-09-26T12:51:59.366Z,2.30
2022-09-26T12:54:49.703Z,1.57
2022-09-26T12:57:41.573Z,1.20
2022-09-26T13:00:13.844Z,1.57
2022-09-26T13:03:22.494Z,1.60
2022-09-26T13:06:13.308Z,1.77
2022-09-26T13:08:39.853Z,1.40
2022-09-26T13:11:33.104Z,2.47
2022-09-26T13:14:14.814Z,2.90
2022-09-26T13:17:06.171Z,2.70
2022-09-26T13:19:57.472Z,1.97
2022-09-26T13:22:34.937Z,1.80
2022-09-26T13:25:19.959Z,1.73
2022-09-26T13:28:07.155Z,1.00
2022-09-26T13:30:46.370Z,1.50
2022-09-26T13:33:33.587Z,1.30
2022-09-26T13:36:02.096Z,1.67
2022-09-26T13:38:34.677Z,1.30
2022-09-26T13:41:34.197Z,1.47
2022-09-26T13:44:23.522Z,1.63
2022-09-26T13:47:06.715Z,1.33
2022-09-26T13:49:33.861Z,1.40
2022-09-26T13:52:15.097Z,1.40
2022-09-26T13:55:00.851Z,2.00
2022-09-26T13:57:51.077Z,1.40
2022-09-26T14:00:29.238Z,1.43
2022-09-26T14:03:13.717Z,0.90
2022-09-26T14:05:46.701Z,1.13
2022-09-26T14:08:44.549Z,1.20
2022-09-26T14:11:29.459Z,1.30
2022-09-26T14:14:24.098Z,1.57
2022-09-26T14:16:54.890Z,1.20
2022-09-26T14:19:45.714Z,1.33
2022-09-26T14:22:18.925Z,1.27
2022-09-26T14:24:49.478Z,1.50
2022-09-26T14:27:16.032Z,1.70
2022-09-26T14:29:46.763Z,1.30
2022-09-26T14:32:37.180Z,1.40
2022-09-26T14:35:34.214Z,1.10
2022-09-26T14:38:17.245Z,1.20
2022-09-26T14:40:57.958Z,1.30
2022-09-26T14:43:28.875Z,1.30
2022-09-26T14:46:05.236Z,1.33
2022-09-26T14:48:36.794Z,1.10
2022-09-26T14:51:20.847Z,1.30
2022-09-26T14:53:47.355Z,1.00
2022-09-26T14:56:27.186Z,1.47
2022-09-26T14:59:13.995Z,1.33
2022-09-26T15:01:42.214Z,1.03
2022-09-26T15:04:14.806Z,1.50
2022-09-26T15:06:48.575Z,1.20
2022-09-26T15:09:36.910Z,1.30
2022-09-26T15:12:13.707Z,1.03
2022-09-26T15:14:51.771Z,1.13
2022-09-26T15:17:32.467Z,1.23
2022-09-26T15:20:02.819Z,1.53
2022-09-26T15:22:31.131Z,1.40
2022-09-26T15:25:19.671Z,1.40
2022-09-26T15:27:53.949Z,1.47
2022-09-26T15:30:33.007Z,0.90
2022-09-26T15:33:04.162Z,1.10
2022-09-26T15:35:31.949Z,1.40
2022-09-26T15:38:01.770Z,1.40
2022-09-26T15:40:31.071Z,1.20
2022-09-26T15:43:07.907Z,1.20
2022-09-26T15:45:58.170Z,0.80
2022-09-26T15:48:24.893Z,1.30
2022-09-26T15:50:54.276Z,1.30
2022-09-26T15:53:39.528Z,1.40
2022-09-26T15:56:16.771Z,1.10
2022-09-26T15:58:51.365Z,1.47
2022-09-26T16:01:20.673Z,1.43
2022-09-26T16:04:19.319Z,1.83
2022-09-26T16:07:14.980Z,1.27
2022-09-26T16:09:43.904Z,1.30
2022-09-26T16:12:16.753Z,1.20
2022-09-26T16:14:53.203Z,1.60
2022-09-26T16:17:40.405Z,1.17
2022-09-26T16:20:09.964Z,1.23
2022-09-26T16:22:36.783Z,1.10
2022-09-26T16:25:15.929Z,1.60
2022-09-26T16:27:42.989Z,1.13
2022-09-26T16:30:27.785Z,1.30
2022-09-26T16:33:06.814Z,1.23
2022-09-26T16:35:35.474Z,1.30
2022-09-26T16:38:05.412Z,1.50
2022-09-26T16:40:36.083Z,1.37
2022-09-26T16:43:18.976Z,1.30
2022-09-26T16:45:50.979Z,2.10
2022-09-26T16:48:40.300Z,1.50
2022-09-26T16:51:21.230Z,2.67
2022-09-26T16:54:08.900Z,2.10
2022-09-26T16:56:39.822Z,1.70
2022-09-26T16:59:16.560Z,1.70
2022-09-26T17:01:55.844Z,2.20
2022-09-26T17:04:31.683Z,1.50
2022-09-26T17:06:59.652Z,1.50
2022-09-26T17:09:29.846Z,1.60
2022-09-26T17:12:20.454Z,1.60
2022-09-26T17:14:51.988Z,1.53
2022-09-26T17:17:21.942Z,1.87
2022-09-26T17:19:56.753Z,1.93
2022-09-26T17:22:26.550Z,2.03
2022-09-26T17:24:53.485Z,1.60
2022-09-26T17:27:25.722Z,1.87
2022-09-26T17:29:54.477Z,1.37
2022-09-26T17:32:24.974Z,1.80
2022-09-26T17:34:51.787Z,1.50
2022-09-26T17:37:21.875Z,1.77
2022-09-26T17:39:48.473Z,1.93
2022-09-26T17:42:17.209Z,1.70
2022-09-26T17:44:47.893Z,1.70
2022-09-26T17:47:15.947Z,1.90
2022-09-26T17:49:49.062Z,2.13
2022-09-26T17:52:27.256Z,2.10
2022-09-26T17:54:58.458Z,2.03
2022-09-26T17:57:28.023Z,1.87
2022-09-26T17:59:54.840Z,1.63
2022-09-26T18:02:24.281Z,1.67
2022-09-26T18:04:53.893Z,2.10
2022-09-26T18:07:22.103Z,2.13
2022-09-26T18:09:50.891Z,2.00
2022-09-26T18:12:21.852Z,2.30
2022-09-26T18:14:49.110Z,1.90
2022-09-26T18:17:16.285Z,2.40
2022-09-26T18:19:43.718Z,2.17
2022-09-26T18:22:16.134Z,1.90
2022-09-26T18:24:45.306Z,1.73
2022-09-26T18:27:14.552Z,2.03
2022-09-26T18:29:44.493Z,1.60
2022-09-26T18:32:24.533Z,1.77
2022-09-26T18:34:51.730Z,2.20
2022-09-26T18:37:18.307Z,1.80
2022-09-26T18:39:45.316Z,1.87
2022-09-26T18:42:17.478Z,1.70
2022-09-26T18:44:44.079Z,1.43
2022-09-26T18:47:14.443Z,1.70
2022-09-26T18:49:41.918Z,2.00
2022-09-26T18:52:15.797Z,1.50
2022-09-26T18:54:44.692Z,1.93
2022-09-26T18:57:31.054Z,1.90
2022-09-26T18:59:59.062Z,1.50
2022-09-26T19:02:30.331Z,2.33
2022-09-26T19:04:57.584Z,2.20
2022-09-26T19:07:24.462Z,2.40
2022-09-26T19:09:51.246Z,1.90
2022-09-26T19:12:18.281Z,1.63
2022-09-26T19:14:44.932Z,1.63
2022-09-26T19:17:12.168Z,1.87
2022-09-26T19:19:38.991Z,1.70
2022-09-26T19:22:11.550Z,1.70
2022-09-26T19:24:51.001Z,1.50
2022-09-26T19:27:24.346Z,2.13
2022-09-26T19:30:03.349Z,1.83
2022-09-26T19:32:34.612Z,2.00
2022-09-26T19:35:05.995Z,1.80
2022-09-26T19:37:32.623Z,1.70
2022-09-26T19:39:59.363Z,1.40
2022-09-26T19:42:26.276Z,1.70
2022-09-26T19:44:52.895Z,1.60
2022-09-26T19:47:22.068Z,1.50
2022-09-26T19:49:50.443Z,1.50
2022-09-26T19:52:21.124Z,1.70
2022-09-26T19:54:47.914Z,2.00
2022-09-26T19:57:22.609Z,2.00
2022-09-26T19:59:49.979Z,1.63
2022-09-26T20:02:19.166Z,1.70
2022-09-26T20:04:46.594Z,2.10
2022-09-26T20:07:16.085Z,1.97
2022-09-26T20:09:43.053Z,1.70
2022-09-26T20:12:09.880Z,1.83
2022-09-26T20:14:36.734Z,1.60
2022-09-26T20:17:23.074Z,1.60
2022-09-26T20:19:53.153Z,1.60
2022-09-26T20:22:24.414Z,2.00
2022-09-26T20:24:55.408Z,1.60
2022-09-26T20:27:25.467Z,1.53
2022-09-26T20:30:11.113Z,1.60
2022-09-26T20:32:38.266Z,1.70
2022-09-26T20:35:05.381Z,1.70
2022-09-26T20:37:39.240Z,1.80
2022-09-26T20:40:13.537Z,1.43
2022-09-26T20:42:41.387Z,1.83
2022-09-26T20:45:15.867Z,1.50
2022-09-26T20:47:44.782Z,1.80
2022-09-26T20:50:19.618Z,2.00
2022-09-26T20:52:46.274Z,1.77
2022-09-26T20:55:18.073Z,1.73
2022-09-26T20:57:45.573Z,3.17
2022-09-26T21:00:17.474Z,2.33
2022-09-26T21:02:46.502Z,1.80
2022-09-26T21:05:22.852Z,4.97
2022-09-26T21:07:50.728Z,2.70
2022-09-26T21:10:37.921Z,2.40
2022-09-26T21:13:04.536Z,1.60
2022-09-26T21:15:32.872Z,1.90
2022-09-26T21:18:01.190Z,2.27
2022-09-26T21:20:30.594Z,3.90
2022-09-26T21:22:58.194Z,3.10
2022-09-26T21:25:27.688Z,2.10
2022-09-26T21:27:59.294Z,1.63
2022-09-26T21:30:25.988Z,1.50
2022-09-26T21:32:57.773Z,1.30
2022-09-26T21:35:29.748Z,1.50
